메인 페이지
METAR-TAF:

METAR-TAF

공항 :

Abraham Lincoln Capital Airport

스프링필드, 일리노이, 미국

위도: 39-50-43N, 경도: 089-41-02W, 고도: 182m

현재 날씨관측

예보는 23분 전, 17:52시(UTC)에 발표되었습니다.
남남서9kt
온도 29°C
습도 66%
기압 1017 hPa
시정: 16.1km
고도 3400ft 상공 구름 많음
고도 9500ft 상공 구름 많음

METAR: KSPI 241752Z 21009KT 10SM BKN034 BKN095 29/22 A3003 RMK AO2 SLP164 T02940222 10294 20200 58004

시각: 13:15 (18:15 UTC)

예보

예보는 30분 전, 17:45시(UTC)에 발표되었습니다.
예보 대상 시간: 24일 18시부터 25일 18시까지 (UTC)
남남서12kt
시정: 10km
고도 3500ft 상공 구름 보통
고도 25000ft 상공 구름 많음
25일 0100시부터 (UTC)
8kt
시정: 10km
고도 25000ft 상공 구름 많음
25일 0900시부터 (UTC)
남남서8kt
시정: 10km
고도 6000ft 상공 구름 보통, 적란운.
고도 25000ft 상공 구름 많음
시계 내 뇌우
25일 1600시부터 (UTC)
남서10kt, 순간 최대 풍속 18kt
시정: 10km
고도 6000ft 상공 구름 보통, 적란운.
고도 25000ft 상공 구름 많음
시계 내 뇌우

TAF: KSPI 241745Z 2418/2518 21012KT P6SM SCT035 BKN250 FM250100 19008KT P6SM BKN250 FM250900 20008KT P6SM VCTS SCT060CB BKN250 FM251600 23010G18KT P6SM VCTS SCT060CB BKN250

4,000개 이상의 공항 관측 자료 및 예보 (METAR 및 TAF 보고).

지도상에서 검색 가능한 기상관측소가 노란 점과 빨간 점으로 표시되어 있습니다.

기상관측소 명을 보려면 표시 위로 마우스를 이동하세요.

날씨 관측과 예보를 보려면 클릭하세요.

지도 변경 : 확대하려면 엑스 표시가 있는 녹색 버튼, 축소하려면 빼기 표시가 있는 녹색 버튼, 다음 페이지의 지도를 보려면 녹색 화살표를 클릭하세요.


METAR-TAF: